sensor_id;sensor_type;location;lat;lon;timestamp;P1;durP1;ratioP1;P2;durP2;ratioP2
78402;SDS011;67687;43.508;1.504;2023-02-11T07:24:19;33.55;;;16.55;;
78402;SDS011;67687;43.508;1.504;2023-02-11T07:27:28;25.35;;;13.88;;
78402;SDS011;67687;43.508;1.504;2023-02-11T07:29:57;25.23;;;13.07;;
78402;SDS011;67687;43.508;1.504;2023-02-11T07:32:44;30.25;;;13.88;;
78402;SDS011;67687;43.508;1.504;2023-02-11T07:38:49;32.83;;;15.50;;
78402;SDS011;67687;43.508;1.504;2023-02-11T07:41:18;34.17;;;14.88;;
78402;SDS011;67687;43.508;1.504;2023-02-11T07:47:14;33.85;;;17.92;;
78402;SDS011;67687;43.508;1.504;2023-02-11T07:50:08;30.73;;;15.90;;
78402;SDS011;67687;43.508;1.504;2023-02-11T07:52:51;29.67;;;16.23;;
78402;SDS011;67687;43.508;1.504;2023-02-11T08:01:58;28.55;;;16.15;;
78402;SDS011;67687;43.508;1.504;2023-02-11T08:04:57;33.93;;;17.23;;
78402;SDS011;67687;43.508;1.504;2023-02-11T08:11:33;34.55;;;16.95;;
78402;SDS011;67687;43.508;1.504;2023-02-11T08:21:05;27.47;;;18.50;;
78402;SDS011;67687;43.508;1.504;2023-02-11T08:24:31;33.42;;;20.15;;
78402;SDS011;67687;43.508;1.504;2023-02-11T08:37:17;30.37;;;18.13;;
78402;SDS011;67687;43.508;1.504;2023-02-11T08:40:20;31.85;;;19.35;;
78402;SDS011;67687;43.508;1.504;2023-02-11T08:43:02;33.60;;;18.17;;
78402;SDS011;67687;43.508;1.504;2023-02-11T08:46:18;29.08;;;17.85;;
78402;SDS011;67687;43.508;1.504;2023-02-11T08:49:05;58.40;;;28.33;;
78402;SDS011;67687;43.508;1.504;2023-02-11T08:55:23;30.40;;;18.52;;
78402;SDS011;67687;43.508;1.504;2023-02-11T08:58:10;26.30;;;17.33;;
78402;SDS011;67687;43.508;1.504;2023-02-11T09:00:57;30.25;;;17.38;;
78402;SDS011;67687;43.508;1.504;2023-02-11T09:03:33;25.85;;;14.50;;
78402;SDS011;67687;43.508;1.504;2023-02-11T09:06:24;25.63;;;14.87;;
78402;SDS011;67687;43.508;1.504;2023-02-11T09:09:14;21.27;;;13.60;;
78402;SDS011;67687;43.508;1.504;2023-02-11T09:12:17;24.92;;;14.35;;
78402;SDS011;67687;43.508;1.504;2023-02-11T09:15:22;23.63;;;14.90;;
78402;SDS011;67687;43.508;1.504;2023-02-11T09:18:31;18.95;;;11.60;;
78402;SDS011;67687;43.508;1.504;2023-02-11T09:21:39;20.17;;;10.63;;
78402;SDS011;67687;43.508;1.504;2023-02-11T09:24:36;20.08;;;10.80;;
78402;SDS011;67687;43.508;1.504;2023-02-11T09:40:09;15.65;;;9.43;;
78402;SDS011;67687;43.508;1.504;2023-02-11T09:43:13;16.55;;;9.65;;
78402;SDS011;67687;43.508;1.504;2023-02-11T09:46:29;15.95;;;8.68;;
78402;SDS011;67687;43.508;1.504;2023-02-11T09:49:19;17.45;;;9.27;;
78402;SDS011;67687;43.508;1.504;2023-02-11T09:52:32;15.33;;;8.30;;
78402;SDS011;67687;43.508;1.504;2023-02-11T11:59:38;14.45;;;9.10;;
78402;SDS011;67687;43.508;1.504;2023-02-11T12:09:39;16.30;;;8.47;;
78402;SDS011;67687;43.508;1.504;2023-02-11T12:12:47;16.33;;;7.78;;
78402;SDS011;67687;43.508;1.504;2023-02-11T12:56:52;11.82;;;6.47;;
78402;SDS011;67687;43.508;1.504;2023-02-11T12:59:46;12.10;;;7.13;;
